Leeds, Illinois
Current Conditions -  °F | °C
As of 7:55 AM on Thursday 29 Jan 2015 (Local Time) from KC75 Reporting Station
Haze Haze  
Wind Chill: 23°   Ceiling: 1600
Heat Index: 34°   Visibility: 4mi
Dew Point: 30°   Wind: 18mph
Humidity: 86%   Direction: 310°NW
Pressure: 29.89"   Gusts: 26mph
Location:  41.0632°N, 89.0208°W
Report Text: KC75 291355Z AUTO 31016G23KT 4SM BR OVC016 01/M01 A2989 RMK AO2 T00111010
Loading
Personal Weather Stations






























Interactive Weather Map New forecast layout! Learn more

10-Day Weather Forecast

Advertisements
Track Severe Weather on mobile